createdAt,value
2023-03-22T00:01:54.463Z,73.48
2023-03-22T00:04:21.266Z,72.88
2023-03-22T00:06:47.950Z,72.14
2023-03-22T00:09:14.614Z,72.51
2023-03-22T00:11:41.193Z,72.72
2023-03-22T00:14:08.064Z,72.17
2023-03-22T00:16:34.935Z,71.43
2023-03-22T00:19:02.284Z,71.38
2023-03-22T00:21:28.997Z,71.99
2023-03-22T00:23:55.601Z,71.34
2023-03-22T00:26:22.406Z,71.66
2023-03-22T00:28:49.174Z,72.29
2023-03-22T00:31:15.864Z,72.86
2023-03-22T00:33:42.502Z,73.49
2023-03-22T00:36:11.688Z,73.62
2023-03-22T00:38:43.843Z,73.61
2023-03-22T00:41:12.636Z,74.76
2023-03-22T00:43:39.389Z,75.12
2023-03-22T00:46:06.690Z,75.42
2023-03-22T00:48:33.490Z,74.84
2023-03-22T00:51:00.238Z,74.99
2023-03-22T00:53:29.149Z,74.99
2023-03-22T00:55:57.490Z,74.82
2023-03-22T00:58:24.391Z,76.24
2023-03-22T01:00:51.599Z,75.71
2023-03-22T01:03:18.481Z,75.26
2023-03-22T01:05:46.263Z,76.06
2023-03-22T01:08:12.983Z,75.36
2023-03-22T01:10:41.742Z,74.46
2023-03-22T01:13:09.413Z,73.98
2023-03-22T01:15:36.700Z,73.69
2023-03-22T01:18:04.159Z,72.98
2023-03-22T01:20:31.830Z,73.32
2023-03-22T01:22:58.540Z,74.56
2023-03-22T01:25:25.368Z,74.88
2023-03-22T01:27:52.398Z,74.85
2023-03-22T01:30:19.178Z,75.16
2023-03-22T01:32:45.869Z,74.48
2023-03-22T01:35:12.512Z,74.17
2023-03-22T01:37:39.190Z,76.71
2023-03-22T01:40:06.810Z,76.37
2023-03-22T01:42:33.503Z,75.36
2023-03-22T01:45:15.486Z,74.52
2023-03-22T01:47:48.443Z,75.57
2023-03-22T01:50:17.323Z,76.32
2023-03-22T01:52:44.858Z,75.61
2023-03-22T01:55:12.227Z,74.73
2023-03-22T01:57:41.210Z,76.73
2023-03-22T02:00:13.941Z,77.89
2023-03-22T02:02:40.943Z,76.90
2023-03-22T02:05:09.070Z,75.51
2023-03-22T02:07:37.530Z,75.76
2023-03-22T02:10:05.099Z,74.06
2023-03-22T02:12:43.681Z,73.57
2023-03-22T02:15:30.132Z,73.52
2023-03-22T02:17:59.698Z,74.16
2023-03-22T02:20:47.136Z,73.26
2023-03-22T02:23:20.024Z,75.88
2023-03-22T02:26:14.589Z,77.24
2023-03-22T02:28:49.835Z,76.53
2023-03-22T02:31:50.488Z,74.61
2023-03-22T02:34:38.813Z,76.13
2023-03-22T02:37:08.222Z,77.00
2023-03-22T02:39:41.867Z,76.19
2023-03-22T02:42:16.592Z,75.82
2023-03-22T02:44:46.150Z,75.62
2023-03-22T02:47:21.930Z,75.86
2023-03-22T02:50:35.449Z,74.20
2023-03-22T02:53:19.254Z,72.53
2023-03-22T02:55:55.846Z,71.11
2023-03-22T02:58:34.994Z,70.49
2023-03-22T03:01:05.903Z,70.03
2023-03-22T03:03:33.870Z,69.37
2023-03-22T03:06:08.487Z,69.99
2023-03-22T03:08:37.143Z,70.02
2023-03-22T03:11:04.096Z,69.64
2023-03-22T03:13:31.031Z,69.50
2023-03-22T03:16:00.149Z,69.28
2023-03-22T03:18:35.129Z,67.64
2023-03-22T03:21:39.197Z,68.00
2023-03-22T03:24:23.352Z,68.34
2023-03-22T03:27:14.376Z,69.22
2023-03-22T03:29:46.021Z,71.40
2023-03-22T03:32:19.402Z,70.45
2023-03-22T03:34:49.773Z,69.57
2023-03-22T03:37:22.115Z,69.28
2023-03-22T03:39:58.478Z,69.42
2023-03-22T03:42:28.089Z,71.52
2023-03-22T03:44:56.323Z,72.81
2023-03-22T03:47:24.160Z,71.86
2023-03-22T03:49:51.961Z,70.00
2023-03-22T03:52:19.079Z,71.82
2023-03-22T03:54:45.726Z,72.56
2023-03-22T03:57:12.389Z,72.22
2023-03-22T03:59:39.183Z,70.83
2023-03-22T04:02:06.042Z,72.54
2023-03-22T04:04:34.828Z,73.69
2023-03-22T04:07:04.059Z,73.43
2023-03-22T04:09:37.075Z,74.27
2023-03-22T04:12:04.076Z,77.14
2023-03-22T04:14:30.824Z,76.75
2023-03-22T04:16:57.622Z,75.16
2023-03-22T04:19:24.277Z,75.03
2023-03-22T04:21:53.328Z,74.94
2023-03-22T04:24:22.039Z,73.65
2023-03-22T04:26:48.950Z,74.11
2023-03-22T04:29:16.171Z,73.12
2023-03-22T04:31:42.770Z,74.73
2023-03-22T04:34:09.551Z,73.16
2023-03-22T04:36:39.541Z,72.54
2023-03-22T04:39:09.641Z,71.80
2023-03-22T04:41:37.143Z,72.20
2023-03-22T04:44:05.700Z,71.81
2023-03-22T04:46:34.907Z,70.99
2023-03-22T04:49:01.771Z,71.27
2023-03-22T04:51:28.860Z,71.66
2023-03-22T04:53:55.534Z,71.73
2023-03-22T04:56:22.469Z,71.14
2023-03-22T04:58:49.285Z,70.65
2023-03-22T05:01:18.243Z,72.02
2023-03-22T05:03:47.427Z,71.65
2023-03-22T05:06:14.932Z,71.20
2023-03-22T05:08:41.735Z,70.84
2023-03-22T05:11:12.203Z,70.04
2023-03-22T05:13:39.528Z,69.59
2023-03-22T05:16:07.493Z,68.80
2023-03-22T05:18:34.209Z,68.60
2023-03-22T05:21:03.805Z,68.93
2023-03-22T05:23:30.678Z,68.80
2023-03-22T05:25:58.350Z,69.53
2023-03-22T05:28:27.225Z,72.86
2023-03-22T05:30:56.596Z,73.18
2023-03-22T05:33:23.642Z,72.02
2023-03-22T05:35:51.301Z,72.47
2023-03-22T05:38:18.095Z,72.74
2023-03-22T05:44:31.996Z,74.57
2023-03-22T05:46:58.815Z,74.22
2023-03-22T05:49:26.970Z,73.89
2023-03-22T05:51:53.711Z,73.95
2023-03-22T05:54:20.395Z,73.96
2023-03-22T05:56:47.365Z,73.62
2023-03-22T05:59:14.161Z,73.21
2023-03-22T06:01:41.159Z,73.96
2023-03-22T06:04:07.828Z,74.46
2023-03-22T06:06:34.597Z,73.70
2023-03-22T06:09:16.029Z,73.29
2023-03-22T06:11:44.002Z,74.52
2023-03-22T06:14:10.660Z,73.88
2023-03-22T06:16:37.408Z,73.38
2023-03-22T06:19:04.069Z,72.45
2023-03-22T06:21:30.720Z,72.75
2023-03-22T06:23:57.324Z,71.53
2023-03-22T06:26:24.008Z,71.57
2023-03-22T06:28:51.023Z,71.00
2023-03-22T06:31:17.799Z,70.29
2023-03-22T06:33:45.578Z,70.17
2023-03-22T06:36:12.217Z,71.33
2023-03-22T06:38:38.830Z,71.85
2023-03-22T06:41:05.824Z,71.35
2023-03-22T06:43:32.457Z,71.85
2023-03-22T06:45:59.143Z,71.45
2023-03-22T06:48:25.922Z,70.70
2023-03-22T06:50:52.632Z,71.69
2023-03-22T06:53:19.318Z,70.79
2023-03-22T06:55:46.019Z,71.11
2023-03-22T06:58:12.948Z,71.42
2023-03-22T07:00:40.059Z,71.26
2023-03-22T07:03:06.812Z,71.03
2023-03-22T07:05:33.430Z,71.16
2023-03-22T07:07:59.993Z,70.97
2023-03-22T07:10:26.636Z,68.70
2023-03-22T07:12:53.438Z,69.21
2023-03-22T07:15:24.407Z,68.54
2023-03-22T07:17:52.172Z,68.15
2023-03-22T07:20:19.919Z,68.74
2023-03-22T07:22:46.619Z,68.32
2023-03-22T07:25:13.782Z,69.17
2023-03-22T07:27:40.641Z,67.73
2023-03-22T07:30:09.718Z,69.30
2023-03-22T07:32:36.743Z,72.48
2023-03-22T07:35:03.538Z,70.33
2023-03-22T07:37:30.412Z,67.99
2023-03-22T07:39:57.041Z,66.41
2023-03-22T07:42:23.825Z,66.89
2023-03-22T07:44:50.634Z,67.65
2023-03-22T07:47:30.571Z,68.33
2023-03-22T07:49:57.577Z,69.55
2023-03-22T07:52:24.203Z,70.44
2023-03-22T07:54:50.852Z,70.68
2023-03-22T07:57:20.490Z,70.72
2023-03-22T07:59:47.255Z,72.11
2023-03-22T08:02:14.338Z,71.37
2023-03-22T08:04:41.314Z,71.41
2023-03-22T08:07:11.079Z,70.34
2023-03-22T08:09:38.010Z,69.45
2023-03-22T08:12:04.711Z,70.33
2023-03-22T08:14:36.570Z,71.02
2023-03-22T08:17:06.785Z,71.45
2023-03-22T08:19:34.736Z,70.38
2023-03-22T08:22:01.458Z,70.60
2023-03-22T08:24:28.030Z,70.98
2023-03-22T08:26:54.708Z,70.41
2023-03-22T08:29:23.280Z,70.04
2023-03-22T08:31:50.883Z,68.85
2023-03-22T08:34:17.578Z,69.06
2023-03-22T08:36:44.141Z,68.36
2023-03-22T08:39:10.737Z,68.82
2023-03-22T08:41:37.434Z,68.66
2023-03-22T08:44:04.148Z,69.00
2023-03-22T08:46:31.081Z,69.08
2023-03-22T08:49:00.433Z,71.07
2023-03-22T08:51:27.126Z,72.62
2023-03-22T08:53:53.832Z,72.59
2023-03-22T08:56:22.653Z,74.12
2023-03-22T08:58:49.261Z,74.84
2023-03-22T09:01:17.882Z,75.57
2023-03-22T09:03:44.634Z,74.06
2023-03-22T09:06:11.429Z,74.34
2023-03-22T09:08:38.398Z,73.95
2023-03-22T09:11:07.863Z,74.51
2023-03-22T09:13:34.782Z,75.54
2023-03-22T09:16:02.386Z,74.32
2023-03-22T09:18:29.008Z,74.10
2023-03-22T09:20:55.797Z,73.27
2023-03-22T09:23:22.484Z,73.75
2023-03-22T09:25:49.201Z,73.25
2023-03-22T09:28:16.812Z,73.29
2023-03-22T09:30:44.892Z,73.27
2023-03-22T09:33:11.617Z,72.61
2023-03-22T09:35:42.954Z,72.20
2023-03-22T09:38:10.736Z,72.31
2023-03-22T09:40:43.351Z,72.17
2023-03-22T09:43:13.679Z,71.60
2023-03-22T09:45:48.590Z,71.40
2023-03-22T09:48:27.706Z,70.99
2023-03-22T09:50:55.406Z,70.51
2023-03-22T09:53:26.774Z,70.42
2023-03-22T09:55:59.232Z,70.84
2023-03-22T09:58:44.321Z,70.47
2023-03-22T10:01:24.459Z,70.92
2023-03-22T10:04:40.686Z,70.70
2023-03-22T10:07:20.489Z,68.95
2023-03-22T10:09:54.864Z,70.31
2023-03-22T10:12:31.476Z,71.37
2023-03-22T10:15:05.706Z,70.42
2023-03-22T10:17:32.495Z,69.43
2023-03-22T10:20:25.477Z,68.84
2023-03-22T10:22:55.172Z,69.22
2023-03-22T10:25:31.178Z,68.85
2023-03-22T10:27:58.998Z,68.35
2023-03-22T10:30:28.665Z,68.55
2023-03-22T10:33:13.492Z,68.16
2023-03-22T10:35:44.095Z,67.99
2023-03-22T10:38:28.449Z,67.54
2023-03-22T10:40:58.388Z,66.60
2023-03-22T10:43:39.495Z,65.85
2023-03-22T10:46:12.459Z,67.48
2023-03-22T10:48:45.566Z,66.62
2023-03-22T10:51:27.888Z,66.55
2023-03-22T10:53:58.230Z,66.41
2023-03-22T10:56:25.253Z,66.03
2023-03-22T10:58:52.836Z,68.22
2023-03-22T11:01:27.536Z,67.84
2023-03-22T11:04:00.242Z,68.15
2023-03-22T11:06:36.991Z,67.69
2023-03-22T11:09:32.768Z,68.49
2023-03-22T11:12:00.718Z,68.12
2023-03-22T11:14:34.092Z,67.49
2023-03-22T11:17:06.795Z,69.37
2023-03-22T11:19:36.667Z,68.64
2023-03-22T11:22:07.784Z,69.68
2023-03-22T11:24:34.846Z,69.78
2023-03-22T11:27:04.954Z,70.99
2023-03-22T11:29:44.351Z,71.37
2023-03-22T11:32:26.483Z,69.72
2023-03-22T11:35:11.176Z,70.18
2023-03-22T11:37:51.462Z,70.14
2023-03-22T11:40:22.311Z,70.06
2023-03-22T11:42:53.288Z,71.27
2023-03-22T11:45:36.105Z,70.94
2023-03-22T11:48:07.688Z,71.25
2023-03-22T11:50:37.247Z,71.81
2023-03-22T11:53:06.856Z,71.32
2023-03-22T11:55:36.408Z,71.24
2023-03-22T11:58:04.777Z,70.54
2023-03-22T12:00:37.627Z,69.97
2023-03-22T12:03:09.769Z,71.59
2023-03-22T12:05:43.069Z,71.91
2023-03-22T12:08:39.256Z,71.67
2023-03-22T12:11:17.860Z,70.38
2023-03-22T12:13:59.198Z,70.88
2023-03-22T12:16:31.999Z,70.83
2023-03-22T12:19:22.601Z,71.03
2023-03-22T12:21:51.645Z,70.32
2023-03-22T12:24:36.090Z,70.08
2023-03-22T12:27:23.173Z,69.84
2023-03-22T12:30:22.609Z,70.60
2023-03-22T12:32:54.533Z,71.32
2023-03-22T12:35:31.396Z,69.45
2023-03-22T12:38:02.219Z,69.50
2023-03-22T12:40:34.410Z,69.25
2023-03-22T12:43:16.241Z,69.24
2023-03-22T12:45:49.182Z,69.74
2023-03-22T12:48:18.245Z,68.12
2023-03-22T12:50:51.606Z,66.22
2023-03-22T12:53:20.073Z,67.80
2023-03-22T12:55:48.130Z,66.93
2023-03-22T12:58:22.395Z,65.90
2023-03-22T13:00:54.980Z,65.67
2023-03-22T13:03:47.981Z,66.05
2023-03-22T13:06:33.689Z,65.12
2023-03-22T13:09:03.171Z,63.61
2023-03-22T13:11:29.877Z,64.44
2023-03-22T13:13:56.741Z,63.87
2023-03-22T13:16:24.611Z,65.25
2023-03-22T13:18:52.648Z,64.39
2023-03-22T13:21:29.852Z,63.43
2023-03-22T13:24:01.227Z,64.07
2023-03-22T13:26:52.907Z,64.69
2023-03-22T13:29:26.006Z,62.79
2023-03-22T13:32:05.944Z,64.52
2023-03-22T13:34:40.880Z,64.48
2023-03-22T13:37:31.596Z,64.46
2023-03-22T13:40:02.319Z,67.75
2023-03-22T13:42:36.755Z,67.37
2023-03-22T13:45:07.453Z,67.55
2023-03-22T13:47:45.628Z,63.87
2023-03-22T13:50:28.130Z,62.19
2023-03-22T13:53:02.266Z,61.86
2023-03-22T13:55:57.113Z,60.80
2023-03-22T13:58:50.732Z,60.67
2023-03-22T14:01:28.135Z,62.19
2023-03-22T14:04:02.235Z,65.37
2023-03-22T14:06:35.374Z,64.25
2023-03-22T14:09:13.428Z,65.30
2023-03-22T14:11:48.185Z,65.14
2023-03-22T14:14:25.366Z,61.68
2023-03-22T14:17:16.055Z,61.42
2023-03-22T14:19:43.209Z,67.55
